createdAt,value
2022-09-10T00:02:16.066Z,2.63
2022-09-10T00:04:43.109Z,2.58
2022-09-10T00:07:09.954Z,2.10
2022-09-10T00:09:37.940Z,1.73
2022-09-10T00:12:05.006Z,2.20
2022-09-10T00:14:31.929Z,2.88
2022-09-10T00:16:58.743Z,2.40
2022-09-10T00:19:25.650Z,2.67
2022-09-10T00:21:52.584Z,2.35
2022-09-10T00:24:19.718Z,2.60
2022-09-10T00:26:46.655Z,2.50
2022-09-10T00:29:16.079Z,2.50
2022-09-10T00:31:43.763Z,2.40
2022-09-10T00:34:12.574Z,2.30
2022-09-10T00:36:41.194Z,1.95
2022-09-10T00:39:12.005Z,2.50
2022-09-10T00:41:40.816Z,2.63
2022-09-10T00:44:39.652Z,2.50
2022-09-10T00:47:14.695Z,2.08
2022-09-10T00:49:45.731Z,2.30
2022-09-10T00:52:14.019Z,2.15
2022-09-10T00:54:44.941Z,2.30
2022-09-10T00:57:22.213Z,2.33
2022-09-10T00:59:59.337Z,2.17
2022-09-10T01:02:26.537Z,2.40
2022-09-10T01:04:55.402Z,2.28
2022-09-10T01:07:24.205Z,2.60
2022-09-10T01:09:51.498Z,2.38
2022-09-10T01:12:50.406Z,2.30
2022-09-10T01:15:20.402Z,2.40
2022-09-10T01:17:59.509Z,2.35
2022-09-10T01:20:54.325Z,2.55
2022-09-10T01:23:42.685Z,2.15
2022-09-10T01:26:31.493Z,2.47
2022-09-10T01:29:04.578Z,2.05
2022-09-10T01:31:46.008Z,2.20
2022-09-10T01:34:40.400Z,2.95
2022-09-10T01:37:14.383Z,2.75
2022-09-10T01:39:42.373Z,2.63
2022-09-10T01:42:09.306Z,2.42
2022-09-10T01:44:44.608Z,2.22
2022-09-10T01:47:32.519Z,2.63
2022-09-10T01:50:06.281Z,2.20
2022-09-10T01:52:51.730Z,2.63
2022-09-10T01:55:43.740Z,2.45
2022-09-10T01:58:34.777Z,2.50
2022-09-10T02:01:21.484Z,2.67
2022-09-10T02:03:52.564Z,2.30
2022-09-10T02:06:22.591Z,2.50
2022-09-10T02:08:53.740Z,2.33
2022-09-10T02:11:21.708Z,2.13
2022-09-10T02:13:48.899Z,3.20
2022-09-10T02:16:28.541Z,2.20
2022-09-10T02:18:56.479Z,2.47
2022-09-10T02:21:23.569Z,2.75
2022-09-10T02:23:56.560Z,2.75
2022-09-10T02:26:24.146Z,2.65
2022-09-10T02:28:51.028Z,2.58
2022-09-10T02:31:18.954Z,2.75
2022-09-10T02:33:45.927Z,2.53
2022-09-10T02:36:12.782Z,2.67
2022-09-10T02:38:40.303Z,2.60
2022-09-10T02:41:09.364Z,2.25
2022-09-10T02:43:38.323Z,2.47
2022-09-10T02:46:07.527Z,2.42
2022-09-10T02:48:34.376Z,2.42
2022-09-10T02:51:02.744Z,2.50
2022-09-10T02:53:31.840Z,2.70
2022-09-10T02:55:59.071Z,2.45
2022-09-10T02:58:25.933Z,2.72
2022-09-10T03:00:52.860Z,2.80
2022-09-10T03:03:19.698Z,3.03
2022-09-10T03:05:47.466Z,2.58
2022-09-10T03:08:14.451Z,2.83
2022-09-10T03:10:41.417Z,2.88
2022-09-10T03:13:08.393Z,2.50
2022-09-10T03:15:35.264Z,3.00
2022-09-10T03:18:02.206Z,2.55
2022-09-10T03:20:29.070Z,3.20
2022-09-10T03:22:56.671Z,3.08
2022-09-10T03:25:23.705Z,3.03
2022-09-10T03:27:50.722Z,2.78
2022-09-10T03:30:17.966Z,2.67
2022-09-10T03:32:44.824Z,2.97
2022-09-10T03:35:13.788Z,2.97
2022-09-10T03:37:40.799Z,3.17
2022-09-10T03:40:08.736Z,2.70
2022-09-10T03:42:35.743Z,3.30
2022-09-10T03:45:02.665Z,3.00
2022-09-10T03:47:29.591Z,2.67
2022-09-10T03:49:56.463Z,2.80
2022-09-10T03:52:23.290Z,2.55
2022-09-10T03:54:51.197Z,2.45
2022-09-10T03:57:18.211Z,2.95
2022-09-10T03:59:46.245Z,2.92
2022-09-10T04:02:13.337Z,3.10
2022-09-10T04:04:41.155Z,3.42
2022-09-10T04:07:09.498Z,2.50
2022-09-10T04:09:36.500Z,3.08
2022-09-10T04:12:04.180Z,2.97
2022-09-10T04:14:31.276Z,2.90
2022-09-10T04:16:59.108Z,2.88
2022-09-10T04:19:27.831Z,2.88
2022-09-10T04:21:55.180Z,3.10
2022-09-10T04:24:22.099Z,2.85
2022-09-10T04:26:49.049Z,2.70
2022-09-10T04:29:16.325Z,3.17
2022-09-10T04:31:43.349Z,2.95
2022-09-10T04:34:10.662Z,2.83
2022-09-10T04:36:37.830Z,2.90
2022-09-10T04:39:04.813Z,2.85
2022-09-10T04:41:31.788Z,2.88
2022-09-10T04:43:58.807Z,2.83
2022-09-10T04:46:26.655Z,2.90
2022-09-10T04:48:54.368Z,2.60
2022-09-10T04:51:21.475Z,2.72
2022-09-10T04:53:48.395Z,2.70
2022-09-10T04:56:15.787Z,2.40
2022-09-10T04:58:44.473Z,2.60
2022-09-10T05:01:11.779Z,2.80
2022-09-10T05:03:38.865Z,2.58
2022-09-10T05:06:06.056Z,2.92
2022-09-10T05:08:33.141Z,2.50
2022-09-10T05:11:02.986Z,2.78
2022-09-10T05:13:31.211Z,2.90
2022-09-10T05:15:59.362Z,2.80
2022-09-10T05:18:26.635Z,2.67
2022-09-10T05:20:53.770Z,3.00
2022-09-10T05:23:21.357Z,2.30
2022-09-10T05:25:48.893Z,2.25
2022-09-10T05:28:18.550Z,2.40
2022-09-10T05:30:51.245Z,2.70
2022-09-10T05:33:18.610Z,2.47
2022-09-10T05:35:49.421Z,2.63
2022-09-10T05:38:16.283Z,2.45
2022-09-10T05:40:43.566Z,2.78
2022-09-10T05:43:12.073Z,2.58
2022-09-10T05:45:39.134Z,2.47
2022-09-10T05:48:06.424Z,2.45
2022-09-10T05:50:33.456Z,2.90
2022-09-10T05:53:01.316Z,4.03
2022-09-10T05:55:31.360Z,4.13
2022-09-10T05:57:58.794Z,4.47
2022-09-10T06:00:27.036Z,5.20
2022-09-10T06:02:54.540Z,6.03
2022-09-10T06:05:23.229Z,4.65
2022-09-10T06:07:50.646Z,4.00
2022-09-10T06:10:17.584Z,3.53
2022-09-10T06:12:48.477Z,2.67
2022-09-10T06:15:16.311Z,2.75
2022-09-10T06:17:43.203Z,2.95
2022-09-10T06:20:11.269Z,2.20
2022-09-10T06:22:38.328Z,2.00
2022-09-10T06:25:06.541Z,2.10
2022-09-10T06:27:34.276Z,1.83
2022-09-10T06:30:01.724Z,1.92
2022-09-10T06:32:28.693Z,1.98
2022-09-10T06:34:55.639Z,2.20
2022-09-10T06:37:22.991Z,1.90
2022-09-10T06:39:50.354Z,2.38
2022-09-10T06:42:17.367Z,2.20
2022-09-10T06:44:45.466Z,2.20
2022-09-10T06:48:06.864Z,1.73
2022-09-10T06:50:04.775Z,2.40
2022-09-10T06:52:31.847Z,2.10
2022-09-10T06:54:59.564Z,1.92
2022-09-10T06:57:27.222Z,2.30
2022-09-10T06:59:54.139Z,2.13
2022-09-10T07:02:21.135Z,2.00
2022-09-10T07:04:48.309Z,2.10
2022-09-10T07:07:15.266Z,1.98
2022-09-10T07:09:42.594Z,2.30
2022-09-10T07:12:17.999Z,2.50
2022-09-10T07:14:45.342Z,2.20
2022-09-10T07:17:12.610Z,2.08
2022-09-10T07:19:39.973Z,1.75
2022-09-10T07:22:07.190Z,1.95
2022-09-10T07:24:34.435Z,1.98
2022-09-10T07:27:01.399Z,2.05
2022-09-10T07:29:31.339Z,1.98
2022-09-10T07:31:58.424Z,2.28
2022-09-10T07:34:25.513Z,2.33
2022-09-10T07:36:52.555Z,1.98
2022-09-10T07:39:24.933Z,1.92
2022-09-10T07:41:52.775Z,1.95
2022-09-10T07:44:19.863Z,2.17
2022-09-10T07:46:46.696Z,2.00
2022-09-10T07:49:13.617Z,1.90
2022-09-10T07:51:40.807Z,1.95
2022-09-10T07:54:08.081Z,1.90
2022-09-10T07:56:35.666Z,1.90
2022-09-10T07:59:03.128Z,1.90
2022-09-10T08:01:31.817Z,2.00
2022-09-10T08:03:59.046Z,2.05
2022-09-10T08:06:26.399Z,1.85
2022-09-10T08:08:53.395Z,1.73
2022-09-10T08:11:21.428Z,1.88
2022-09-10T08:13:50.740Z,1.80
2022-09-10T08:16:21.135Z,2.00
2022-09-10T08:18:49.411Z,1.73
2022-09-10T08:21:17.793Z,2.00
2022-09-10T08:23:51.730Z,2.00
2022-09-10T08:26:18.782Z,1.90
2022-09-10T08:28:48.073Z,1.67
2022-09-10T08:31:16.584Z,1.75
2022-09-10T08:33:51.906Z,2.30
2022-09-10T08:36:21.834Z,2.15
2022-09-10T08:38:50.458Z,1.80
2022-09-10T08:41:41.601Z,1.92
2022-09-10T08:44:12.672Z,2.10
2022-09-10T08:46:42.719Z,2.47
2022-09-10T08:49:15.728Z,1.80
2022-09-10T08:51:53.271Z,1.80
2022-09-10T08:54:31.332Z,1.80
2022-09-10T08:57:00.547Z,1.98
2022-09-10T08:59:44.775Z,1.83
2022-09-10T09:02:54.302Z,1.90
2022-09-10T09:05:23.522Z,1.70
2022-09-10T09:07:52.281Z,1.90
2022-09-10T09:10:25.469Z,2.17
2022-09-10T09:13:05.043Z,2.00
2022-09-10T09:15:51.886Z,1.90
2022-09-10T09:18:25.137Z,1.60
2022-09-10T09:20:57.866Z,1.65
2022-09-10T09:24:02.798Z,2.00
2022-09-10T09:26:36.923Z,2.00
2022-09-10T09:29:19.187Z,1.92
2022-09-10T09:31:54.149Z,1.70
2022-09-10T09:34:29.061Z,1.98
2022-09-10T09:37:01.240Z,2.00
2022-09-10T09:39:59.945Z,1.70
2022-09-10T09:42:43.383Z,2.28
2022-09-10T09:45:23.507Z,2.08
2022-09-10T09:47:51.187Z,1.83
2022-09-10T09:50:18.690Z,1.90
2022-09-10T09:52:46.907Z,1.90
2022-09-10T09:55:48.241Z,2.05
2022-09-10T09:58:21.909Z,2.00
2022-09-10T10:00:53.910Z,2.13
2022-09-10T10:03:25.695Z,1.70
2022-09-10T10:06:04.024Z,1.98
2022-09-10T10:08:41.652Z,1.77
2022-09-10T10:11:09.445Z,2.00
2022-09-10T10:13:42.789Z,2.70
2022-09-10T10:16:35.782Z,2.03
2022-09-10T10:19:02.860Z,2.20
2022-09-10T10:21:30.901Z,1.83
2022-09-10T10:23:58.335Z,2.22
2022-09-10T10:26:32.179Z,1.90
2022-09-10T10:29:00.064Z,2.22
2022-09-10T10:31:45.756Z,1.80
2022-09-10T10:34:15.927Z,2.00
2022-09-10T10:36:59.852Z,1.50
2022-09-10T10:39:45.349Z,1.20
2022-09-10T10:42:27.669Z,1.90
2022-09-10T10:44:57.596Z,1.90
2022-09-10T10:48:15.521Z,1.90
2022-09-10T10:51:09.642Z,2.20
2022-09-10T10:53:58.388Z,1.85
2022-09-10T10:56:36.280Z,1.98
2022-09-10T10:59:15.301Z,1.60
2022-09-10T11:01:48.619Z,1.63
2022-09-10T11:04:36.785Z,1.80
2022-09-10T11:07:27.497Z,1.95
2022-09-10T11:10:12.634Z,2.22
2022-09-10T11:12:47.556Z,1.70
2022-09-10T11:15:29.561Z,2.45
2022-09-10T11:18:27.382Z,1.73
2022-09-10T11:21:22.473Z,1.65
2022-09-10T11:24:04.617Z,1.73
2022-09-10T11:27:06.596Z,1.88
2022-09-10T11:29:45.171Z,1.90
2022-09-10T11:32:42.725Z,1.80
2022-09-10T11:35:23.907Z,1.73
2022-09-10T11:38:13.107Z,1.80
2022-09-10T11:40:52.733Z,1.90
2022-09-10T11:43:37.931Z,1.80
2022-09-10T11:46:15.212Z,1.50
2022-09-10T11:48:44.735Z,2.15
2022-09-10T11:51:32.137Z,1.83
2022-09-10T11:54:01.277Z,2.17
2022-09-10T11:56:53.015Z,1.77
2022-09-10T11:59:37.421Z,2.38
2022-09-10T12:02:42.057Z,1.98
2022-09-10T12:05:30.476Z,2.60
2022-09-10T12:08:29.753Z,1.75
2022-09-10T12:11:09.489Z,1.52
2022-09-10T12:13:39.506Z,2.15
2022-09-10T12:16:19.631Z,1.75
2022-09-10T12:18:50.409Z,2.20
2022-09-10T12:21:20.268Z,2.15
2022-09-10T12:23:48.276Z,1.90
2022-09-10T12:26:22.560Z,1.80
2022-09-10T12:28:49.815Z,1.65
2022-09-10T12:31:20.106Z,2.30
2022-09-10T12:33:47.472Z,2.38
2022-09-10T12:36:35.633Z,2.00
2022-09-10T12:39:24.516Z,1.90
2022-09-10T12:41:51.638Z,1.67
2022-09-10T12:44:38.017Z,1.98
2022-09-10T12:47:17.307Z,1.73
2022-09-10T12:49:55.684Z,1.88
2022-09-10T12:52:37.614Z,2.10
2022-09-10T12:55:21.796Z,2.70
2022-09-10T12:57:58.760Z,2.70
2022-09-10T13:00:30.782Z,1.95
2022-09-10T13:03:20.294Z,1.83
2022-09-10T13:05:51.663Z,2.33
2022-09-10T13:08:50.770Z,2.10
2022-09-10T13:11:23.819Z,1.90
2022-09-10T13:14:02.112Z,1.83
2022-09-10T13:16:29.053Z,2.72
2022-09-10T13:19:19.688Z,2.20
2022-09-10T13:21:51.117Z,2.20
2022-09-10T13:24:38.939Z,2.00
2022-09-10T13:27:18.185Z,2.10
2022-09-10T13:30:10.608Z,2.00
2022-09-10T13:33:05.213Z,1.70
2022-09-10T13:35:59.206Z,2.10
2022-09-10T13:38:48.058Z,2.45
2022-09-10T13:41:38.331Z,2.30
2022-09-10T13:44:50.768Z,2.13
2022-09-10T13:47:28.295Z,1.98
2022-09-10T13:50:05.873Z,2.50
2022-09-10T13:52:37.752Z,2.22
2022-09-10T13:55:08.217Z,1.77
2022-09-10T13:57:36.958Z,1.98
2022-09-10T14:00:18.962Z,1.85
2022-09-10T14:02:53.705Z,1.73
2022-09-10T14:05:44.691Z,1.98
2022-09-10T14:08:29.037Z,2.30
2022-09-10T14:11:14.002Z,2.13
2022-09-10T14:14:01.109Z,2.17
2022-09-10T14:16:52.473Z,1.90
2022-09-10T14:19:30.974Z,2.17
2022-09-10T14:21:58.570Z,2.60
2022-09-10T14:24:40.064Z,2.30
2022-09-10T14:27:22.844Z,1.80
2022-09-10T14:29:50.466Z,2.40
2022-09-10T14:32:27.565Z,1.98
2022-09-10T14:34:55.017Z,2.00
2022-09-10T14:37:32.691Z,2.05
2022-09-10T14:40:19.249Z,2.42
2022-09-10T14:42:49.092Z,2.03
2022-09-10T14:45:39.538Z,1.60
2022-09-10T14:48:48.108Z,2.25
2022-09-10T14:51:22.798Z,2.30
2022-09-10T14:53:58.079Z,1.90
2022-09-10T14:56:33.525Z,2.07
2022-09-10T14:59:03.278Z,2.03
2022-09-10T15:01:31.310Z,2.00
2022-09-10T15:03:59.984Z,1.88
2022-09-10T15:06:27.877Z,1.92
2022-09-10T15:08:56.463Z,2.08
2022-09-10T15:11:26.674Z,1.63
2022-09-10T15:13:56.516Z,1.63
2022-09-10T15:16:24.025Z,1.77
2022-09-10T15:18:51.378Z,2.22
2022-09-10T15:21:18.774Z,1.67
2022-09-10T15:23:48.295Z,1.70
2022-09-10T15:26:17.704Z,1.90
2022-09-10T15:28:44.794Z,2.00
2022-09-10T15:31:12.121Z,1.70
2022-09-10T15:33:40.284Z,1.98
2022-09-10T15:36:07.824Z,1.90
2022-09-10T15:38:35.143Z,1.83
2022-09-10T15:41:13.070Z,1.83
2022-09-10T15:43:43.194Z,1.98
2022-09-10T15:46:16.407Z,1.67
2022-09-10T15:48:45.184Z,2.05
2022-09-10T15:51:17.681Z,1.55
2022-09-10T15:53:46.100Z,2.30
2022-09-10T15:56:14.503Z,2.13
2022-09-10T15:58:47.807Z,2.83
2022-09-10T16:01:16.421Z,2.78
2022-09-10T16:03:50.228Z,2.90
2022-09-10T16:06:20.917Z,3.38
2022-09-10T16:08:53.238Z,3.10
2022-09-10T16:11:20.885Z,2.80
2022-09-10T16:13:48.062Z,3.03
2022-09-10T16:16:20.878Z,2.75
2022-09-10T16:18:51.442Z,3.15
2022-09-10T16:21:22.457Z,2.90
2022-09-10T16:23:52.010Z,3.08
2022-09-10T16:26:21.814Z,2.35
2022-09-10T16:28:58.018Z,2.80
2022-09-10T16:34:05.158Z,3.38
2022-09-10T16:36:34.036Z,6.05
2022-09-10T16:39:04.293Z,10.35
2022-09-10T16:41:33.092Z,6.18
2022-09-10T16:44:00.671Z,4.57
2022-09-10T16:46:28.309Z,3.83
2022-09-10T16:48:56.408Z,3.83
2022-09-10T16:51:25.148Z,3.92
2022-09-10T16:53:58.712Z,3.20
2022-09-10T16:56:26.281Z,2.90
2022-09-10T16:58:53.380Z,2.97
2022-09-10T17:01:21.453Z,2.35
2022-09-10T17:03:50.199Z,2.65
2022-09-10T17:06:19.620Z,2.65
2022-09-10T17:08:47.175Z,2.42
2022-09-10T17:11:16.256Z,2.97
2022-09-10T17:13:43.469Z,2.40
2022-09-10T17:16:13.415Z,2.72
2022-09-10T17:18:40.602Z,2.90
2022-09-10T17:21:07.746Z,3.08
2022-09-10T17:23:34.595Z,3.00
2022-09-10T17:26:07.010Z,2.80
2022-09-10T17:28:33.955Z,3.38
2022-09-10T17:31:01.376Z,3.33
2022-09-10T17:33:29.317Z,3.63
2022-09-10T17:35:58.136Z,4.43
2022-09-10T17:38:25.155Z,4.28
2022-09-10T17:41:05.062Z,3.40
2022-09-10T17:43:36.642Z,4.57
2022-09-10T17:46:07.408Z,5.35
2022-09-10T17:48:38.223Z,4.45
2022-09-10T17:51:06.611Z,4.10
2022-09-10T17:53:34.671Z,4.28
2022-09-10T17:56:03.913Z,4.60
2022-09-10T17:58:33.310Z,4.13
2022-09-10T18:01:03.498Z,4.13
2022-09-10T18:03:31.841Z,4.05
2022-09-10T18:06:08.794Z,5.15
2022-09-10T18:08:37.227Z,3.42
2022-09-10T18:11:08.014Z,4.15
2022-09-10T18:13:36.554Z,3.38
2022-09-10T18:16:09.309Z,4.22
2022-09-10T18:18:38.047Z,4.38
2022-09-10T18:21:27.196Z,6.05
2022-09-10T18:23:57.041Z,4.30
2022-09-10T18:26:26.606Z,4.97
2022-09-10T18:29:00.992Z,4.25
2022-09-10T18:31:31.679Z,3.97
2022-09-10T18:33:59.969Z,4.75
2022-09-10T18:36:29.150Z,4.57
2022-09-10T18:38:56.238Z,2.97
2022-09-10T18:41:29.178Z,3.65
2022-09-10T18:44:02.883Z,3.67
2022-09-10T18:46:31.410Z,3.30
2022-09-10T18:48:58.514Z,3.60
2022-09-10T18:51:27.628Z,3.28
2022-09-10T18:53:56.908Z,2.72
2022-09-10T18:56:25.518Z,3.15
2022-09-10T18:59:01.310Z,3.30
2022-09-10T19:01:29.993Z,3.83
2022-09-10T19:04:01.356Z,3.45
2022-09-10T19:06:30.972Z,3.03
2022-09-10T19:09:01.627Z,3.55
2022-09-10T19:11:33.649Z,3.00
2022-09-10T19:14:03.830Z,3.55
2022-09-10T19:16:34.553Z,2.97
2022-09-10T19:19:06.396Z,3.60
2022-09-10T19:21:36.179Z,3.13
2022-09-10T19:24:03.920Z,2.92
2022-09-10T19:26:34.268Z,2.78
2022-09-10T19:29:04.037Z,3.08
2022-09-10T19:31:33.100Z,3.33
2022-09-10T19:34:06.274Z,3.13
2022-09-10T19:36:35.981Z,2.75
2022-09-10T19:39:14.146Z,2.92
2022-09-10T19:41:43.692Z,2.80
2022-09-10T19:44:12.930Z,2.83
2022-09-10T19:46:41.151Z,3.08
2022-09-10T19:49:10.272Z,3.03
2022-09-10T19:51:39.455Z,2.58
2022-09-10T19:54:07.327Z,3.08
2022-09-10T19:56:41.406Z,2.65
2022-09-10T19:59:10.699Z,3.15
2022-09-10T20:01:41.178Z,2.85
2022-09-10T20:04:10.998Z,3.10
2022-09-10T20:06:38.955Z,3.45
2022-09-10T20:09:08.042Z,3.35
2022-09-10T20:11:35.833Z,3.33
2022-09-10T20:14:10.147Z,2.95
2022-09-10T20:16:45.385Z,3.50
2022-09-10T20:19:14.615Z,3.17
2022-09-10T20:21:42.567Z,3.08
2022-09-10T20:24:10.460Z,3.45
2022-09-10T20:26:39.532Z,3.25
2022-09-10T20:29:09.975Z,3.28
2022-09-10T20:31:37.236Z,3.45
2022-09-10T20:34:06.674Z,3.33
2022-09-10T20:36:35.633Z,3.13
2022-09-10T20:39:02.886Z,3.65
2022-09-10T20:41:32.942Z,3.40
2022-09-10T20:44:01.670Z,3.53
2022-09-10T20:46:30.667Z,3.55
2022-09-10T20:49:05.136Z,3.42
2022-09-10T20:51:37.145Z,3.47
2022-09-10T20:54:05.775Z,3.20
2022-09-10T20:56:33.262Z,3.45
2022-09-10T20:59:02.005Z,3.25
2022-09-10T21:01:33.287Z,3.40
2022-09-10T21:04:01.474Z,3.20
2022-09-10T21:06:31.351Z,3.15
2022-09-10T21:08:59.278Z,4.03
2022-09-10T21:11:29.702Z,3.85
2022-09-10T21:13:58.702Z,4.03
2022-09-10T21:16:31.783Z,3.67
2022-09-10T21:19:19.033Z,3.60
2022-09-10T21:21:48.859Z,4.10
2022-09-10T21:24:22.915Z,3.33
2022-09-10T21:26:50.282Z,3.80
2022-09-10T21:29:19.490Z,3.25
2022-09-10T21:31:47.648Z,3.97
2022-09-10T21:34:14.980Z,3.58
2022-09-10T21:36:44.081Z,3.63
2022-09-10T21:39:16.472Z,4.20
2022-09-10T21:41:49.018Z,3.45
2022-09-10T21:44:21.438Z,4.03
2022-09-10T21:46:49.435Z,3.65
2022-09-10T21:49:16.987Z,4.18
2022-09-10T21:51:44.522Z,3.80
2022-09-10T21:54:20.740Z,3.97
2022-09-10T21:59:16.265Z,3.47
2022-09-10T22:01:45.297Z,3.30
2022-09-10T22:04:13.739Z,3.85
2022-09-10T22:06:41.065Z,4.05
2022-09-10T22:09:11.788Z,3.30
2022-09-10T22:11:42.117Z,3.50
2022-09-10T22:14:20.452Z,3.67
2022-09-10T22:16:47.663Z,3.50
2022-09-10T22:19:20.170Z,3.45
2022-09-10T22:21:47.328Z,3.40
2022-09-10T22:24:14.927Z,3.58
2022-09-10T22:26:44.486Z,3.65
2022-09-10T22:29:13.026Z,3.83
2022-09-10T22:31:40.166Z,3.55
2022-09-10T22:34:11.072Z,4.10
2022-09-10T22:36:40.682Z,3.20
2022-09-10T22:39:16.187Z,3.38
2022-09-10T22:41:43.948Z,3.63
2022-09-10T22:44:11.731Z,3.67
2022-09-10T22:46:40.377Z,3.55
2022-09-10T22:49:08.062Z,3.88
2022-09-10T22:51:37.858Z,3.88
2022-09-10T22:54:06.252Z,3.78
2022-09-10T22:56:35.972Z,4.20
2022-09-10T22:59:03.381Z,4.05
2022-09-10T23:01:36.751Z,4.05
2022-09-10T23:04:06.358Z,4.07
2022-09-10T23:06:34.950Z,4.55
2022-09-10T23:09:05.240Z,5.22
2022-09-10T23:11:32.960Z,4.03
2022-09-10T23:14:02.706Z,3.42
2022-09-10T23:16:32.690Z,3.83
2022-09-10T23:19:01.789Z,3.97
2022-09-10T23:21:31.053Z,4.25
2022-09-10T23:24:00.598Z,4.03
2022-09-10T23:26:28.737Z,4.13
2022-09-10T23:28:56.537Z,4.13
2022-09-10T23:31:28.587Z,4.03
2022-09-10T23:33:58.586Z,4.10
2022-09-10T23:36:30.122Z,4.13
2022-09-10T23:38:58.722Z,4.20
2022-09-10T23:41:25.923Z,3.70
2022-09-10T23:43:53.152Z,4.00
2022-09-10T23:46:20.364Z,3.90
2022-09-10T23:48:47.417Z,3.95
2022-09-10T23:51:16.206Z,4.25
2022-09-10T23:53:45.170Z,4.30
2022-09-10T23:56:25.546Z,3.53
2022-09-10T23:58:52.700Z,3.75
